createdAt,value
2019-03-29T07:17:17.721Z,99.90
2019-03-29T07:19:45.901Z,99.90
2019-03-29T07:22:14.203Z,99.90
2019-03-29T07:24:42.403Z,99.90
2019-03-29T07:27:10.617Z,99.90
2019-03-29T07:29:38.868Z,99.90
2019-03-29T07:32:07.134Z,99.90
2019-03-29T07:34:35.387Z,99.90
2019-03-29T07:37:05.881Z,99.90
2019-03-29T07:39:31.814Z,99.90
2019-03-29T07:42:00.006Z,99.90
2019-03-29T07:44:28.196Z,99.90
2019-03-29T07:46:56.474Z,99.90
2019-03-29T07:49:24.693Z,99.90
2019-03-29T07:51:52.901Z,99.90
2019-03-29T07:54:21.138Z,99.90
2019-03-29T07:56:49.355Z,99.90
2019-03-29T07:59:17.619Z,99.90
2019-03-29T08:01:45.828Z,99.90
2019-03-29T08:04:14.051Z,99.90
2019-03-29T08:06:42.310Z,99.90
2019-03-29T08:09:21.770Z,99.90
2019-03-29T08:11:46.307Z,99.90
2019-03-29T08:14:07.021Z,99.90
2019-03-29T08:16:35.300Z,99.90
2019-03-29T08:19:03.525Z,99.90
2019-03-29T08:21:31.769Z,99.90
2019-03-29T08:23:59.987Z,99.90
2019-03-29T08:26:28.355Z,99.90
2019-03-29T08:28:56.465Z,99.90
2019-03-29T08:31:24.697Z,99.90
2019-03-29T08:33:52.905Z,99.90
2019-03-29T08:36:21.095Z,99.90
2019-03-29T08:38:49.440Z,99.90
2019-03-29T08:41:17.654Z,99.90
2019-03-29T08:43:45.852Z,99.90
2019-03-29T08:46:14.111Z,99.90
2019-03-29T08:48:42.304Z,99.90
2019-03-29T08:51:10.524Z,99.90
2019-03-29T08:53:38.754Z,99.90
2019-03-29T08:56:06.994Z,99.90
2019-03-29T08:58:35.209Z,99.90
2019-03-29T09:01:03.476Z,99.90
2019-03-29T09:03:31.663Z,99.90
2019-03-29T09:05:59.920Z,99.90
2019-03-29T09:08:28.174Z,99.90
2019-03-29T09:10:56.407Z,99.90
2019-03-29T09:13:24.638Z,99.90
2019-03-29T09:15:52.891Z,99.90
2019-03-29T09:18:21.135Z,99.90
2019-03-29T09:20:49.401Z,99.90
2019-03-29T09:23:17.657Z,99.90
2019-03-29T09:25:45.838Z,99.90
2019-03-29T09:28:14.055Z,99.90
2019-03-29T09:30:42.343Z,99.90
2019-03-29T09:33:10.558Z,99.90
2019-03-29T09:35:38.801Z,97.30
2019-03-29T09:38:07.013Z,99.70
2019-03-29T09:40:35.239Z,99.90
2019-03-29T09:43:07.817Z,99.90
2019-03-29T09:45:31.690Z,99.90
2019-03-29T09:47:59.946Z,99.90
2019-03-29T09:50:28.197Z,99.90
2019-03-29T09:52:56.489Z,99.90
2019-03-29T09:55:24.681Z,98.90
2019-03-29T09:57:52.935Z,96.70
2019-03-29T10:00:23.547Z,97.70
2019-03-29T10:02:49.513Z,93.70
2019-03-29T10:05:20.072Z,98.50
2019-03-29T10:07:45.937Z,95.50
2019-03-29T10:10:14.264Z,96.70
2019-03-29T10:12:44.006Z,97.30
2019-03-29T10:15:10.660Z,96.70
2019-03-29T10:17:38.849Z,98.50
2019-03-29T10:20:07.082Z,98.00
2019-03-29T10:22:35.322Z,96.70
2019-03-29T10:25:17.982Z,92.90
2019-03-29T10:27:31.795Z,90.70
2019-03-29T10:30:00.093Z,95.40
2019-03-29T10:32:28.294Z,97.30
2019-03-29T10:34:56.501Z,91.20
2019-03-29T10:37:24.790Z,89.20
2019-03-29T13:12:10.489Z,40.40
2019-03-29T13:14:38.745Z,38.60
2019-03-29T13:17:06.981Z,35.10
2019-03-29T13:19:35.211Z,34.60
2019-03-29T13:22:03.393Z,32.30
2019-03-29T13:24:31.599Z,37.30
2019-03-29T13:26:59.841Z,38.60
2019-03-29T13:29:28.076Z,37.00
2019-03-29T13:31:56.294Z,35.00
2019-03-29T13:34:24.557Z,38.10
2019-03-29T13:36:52.737Z,36.00
2019-03-29T13:39:20.958Z,34.40
2019-03-29T13:41:49.204Z,33.10
2019-03-29T13:44:23.704Z,32.90
2019-03-29T13:46:45.609Z,30.60
2019-03-29T13:49:13.886Z,33.80
2019-03-29T13:51:42.065Z,35.30
2019-03-29T13:54:10.295Z,37.50
2019-03-29T13:56:38.564Z,36.30
2019-03-29T13:59:06.742Z,36.80
2019-03-29T14:01:34.961Z,36.50
2019-03-29T14:04:03.203Z,33.80
2019-03-29T14:06:31.399Z,36.00
2019-03-29T14:08:59.654Z,32.80
2019-03-29T14:11:27.915Z,32.70
2019-03-29T14:13:56.126Z,33.20
2019-03-29T14:16:24.339Z,33.00
2019-03-29T14:18:52.552Z,30.30
2019-03-29T14:21:20.783Z,34.00
2019-03-29T14:23:48.987Z,32.00
2019-03-29T14:26:17.208Z,32.30
2019-03-29T14:28:45.435Z,31.10
2019-03-29T14:31:13.687Z,30.60
2019-03-29T14:33:41.911Z,29.80
2019-03-29T14:36:10.125Z,29.60
2019-03-29T14:38:38.332Z,28.90
2019-03-29T14:41:06.580Z,29.00
2019-03-29T14:43:34.882Z,29.90
2019-03-29T14:46:02.999Z,30.90
2019-03-29T14:48:31.242Z,33.10
2019-03-29T14:50:59.496Z,32.60
2019-03-29T14:53:27.745Z,33.60
2019-03-29T14:55:55.966Z,34.30
2019-03-29T14:58:24.193Z,35.20
2019-03-29T15:00:52.443Z,35.50
2019-03-29T15:03:20.676Z,34.90
2019-03-29T15:05:48.871Z,35.00
2019-03-29T15:08:17.089Z,37.40
2019-03-29T15:10:45.961Z,40.90
2019-03-29T15:13:13.528Z,40.80
2019-03-29T15:15:41.723Z,40.00
2019-03-29T15:18:10.023Z,41.30
2019-03-29T15:20:52.122Z,40.60
2019-03-29T15:23:06.479Z,40.10
2019-03-29T15:25:34.740Z,39.40
2019-03-29T15:28:02.980Z,37.00
2019-03-29T15:30:31.181Z,36.30
2019-03-29T15:32:59.404Z,39.50
2019-03-29T15:35:27.653Z,43.40
2019-03-29T15:37:55.858Z,42.50
2019-03-29T15:40:24.156Z,44.00
2019-03-29T15:42:52.365Z,43.30
2019-03-29T15:45:21.178Z,42.60
2019-03-29T15:47:49.304Z,42.70
2019-03-29T15:50:17.539Z,43.40
2019-03-29T15:52:45.781Z,43.40
2019-03-29T15:55:14.001Z,43.90
2019-03-29T15:57:42.183Z,45.90
2019-03-29T16:00:10.395Z,45.50
2019-03-29T16:02:38.642Z,46.00
2019-03-29T16:05:06.820Z,47.20
2019-03-29T16:07:35.174Z,46.80
2019-03-29T16:10:03.341Z,46.00
2019-03-29T16:12:31.538Z,46.50
2019-03-29T16:14:59.724Z,48.50
2019-03-29T16:17:28.012Z,52.60
2019-03-29T16:19:56.264Z,53.60
2019-03-29T16:22:24.442Z,56.20
2019-03-29T16:24:52.708Z,59.00
2019-03-29T16:27:20.909Z,57.50
2019-03-29T16:29:49.161Z,59.80
2019-03-29T16:32:17.392Z,59.80
2019-03-29T16:34:45.616Z,60.00
2019-03-29T16:37:13.851Z,60.30
2019-03-29T16:39:42.102Z,61.60
2019-03-29T16:42:10.351Z,63.80
2019-03-29T16:44:38.532Z,65.70
2019-03-29T16:47:07.267Z,66.00
2019-03-29T16:49:35.501Z,66.30
2019-03-29T16:52:03.681Z,66.70
2019-03-29T16:54:31.923Z,68.20
2019-03-29T16:57:00.102Z,69.60
2019-03-29T16:59:28.339Z,69.80
2019-03-29T17:01:56.595Z,70.60
